createdAt,value
2023-03-26T00:08:23.176Z,62.61
2023-03-26T00:18:30.800Z,63.58
2023-03-26T00:28:35.183Z,64.75
2023-03-26T01:02:59.169Z,68.36
2023-03-26T01:13:02.955Z,68.53
2023-03-26T01:23:08.351Z,68.66
2023-03-26T01:33:23.799Z,68.50
2023-03-26T01:43:33.171Z,68.27
2023-03-26T01:53:39.186Z,69.45
2023-03-26T02:03:47.913Z,69.76
2023-03-26T02:13:53.352Z,69.83
2023-03-26T02:24:03.233Z,68.92
2023-03-26T02:34:11.215Z,67.99
2023-03-26T02:44:16.596Z,68.89
2023-03-26T02:54:36.896Z,69.83
2023-03-26T03:05:01.904Z,69.83
2023-03-26T03:15:11.831Z,70.27
2023-03-26T03:25:17.596Z,70.56
2023-03-26T03:35:23.632Z,71.77
2023-03-26T03:45:31.537Z,74.28
2023-03-26T03:55:54.070Z,78.61
2023-03-26T04:06:00.599Z,82.14
2023-03-26T04:16:06.834Z,82.61
2023-03-26T04:26:16.853Z,83.04
2023-03-26T04:36:40.878Z,87.12
2023-03-26T04:46:46.100Z,89.38
2023-03-26T04:57:00.422Z,88.74
2023-03-26T05:07:09.684Z,88.85
2023-03-26T05:17:21.372Z,88.88
2023-03-26T05:27:25.058Z,91.76
2023-03-26T05:37:32.167Z,91.44
2023-03-26T05:47:41.089Z,92.27
2023-03-26T05:57:45.877Z,92.91
2023-03-26T06:08:15.903Z,95.86
2023-03-26T06:18:27.501Z,97.82
2023-03-26T06:28:52.590Z,97.13
2023-03-26T06:39:32.614Z,97.90
2023-03-26T06:49:53.919Z,99.09
2023-03-26T07:00:17.935Z,100.00
2023-03-26T07:10:39.226Z,100.00
2023-03-26T07:20:48.014Z,100.00
2023-03-26T07:31:17.474Z,100.00
2023-03-26T07:41:35.982Z,100.00
2023-03-26T07:51:58.974Z,100.00
2023-03-26T08:02:48.515Z,100.00
2023-03-26T08:13:26.432Z,100.00
2023-03-26T08:23:50.912Z,100.00
2023-03-26T08:33:54.099Z,100.00
2023-03-26T08:44:40.846Z,100.00
2023-03-26T08:55:10.633Z,100.00
2023-03-26T09:05:46.590Z,100.00
2023-03-26T09:16:28.058Z,100.00
2023-03-26T09:26:43.825Z,100.00
2023-03-26T09:36:55.680Z,100.00
2023-03-26T09:47:25.603Z,100.00
2023-03-26T09:57:49.518Z,100.00
2023-03-26T10:08:11.336Z,100.00
2023-03-26T10:18:29.902Z,100.00
2023-03-26T10:28:52.126Z,100.00
2023-03-26T10:39:04.988Z,100.00
2023-03-26T10:49:40.736Z,100.00
2023-03-26T10:59:45.431Z,100.00
2023-03-26T11:09:59.605Z,100.00
2023-03-26T11:20:09.495Z,100.00
2023-03-26T11:30:26.181Z,100.00
2023-03-26T11:40:34.844Z,100.00
2023-03-26T11:50:43.798Z,100.00
2023-03-26T12:00:48.876Z,100.00
2023-03-26T12:11:05.316Z,100.00
2023-03-26T12:21:12.775Z,100.00
2023-03-26T12:31:19.504Z,100.00
2023-03-26T12:43:40.449Z,100.00
2023-03-26T12:52:16.194Z,100.00
2023-03-26T13:02:43.957Z,100.00
2023-03-26T13:12:58.336Z,100.00
2023-03-26T13:23:10.484Z,100.00
2023-03-26T13:33:33.512Z,100.00
2023-03-26T13:43:50.665Z,100.00
2023-03-26T14:04:57.982Z,100.00
2023-03-26T14:15:04.415Z,100.00
2023-03-26T14:25:26.595Z,100.00
2023-03-26T14:35:37.819Z,100.00
2023-03-26T14:46:04.444Z,100.00
2023-03-26T14:56:42.633Z,100.00
2023-03-26T15:07:14.263Z,100.00
2023-03-26T15:17:55.379Z,100.00
2023-03-26T15:28:20.373Z,100.00
2023-03-26T15:38:57.992Z,100.00
2023-03-26T15:49:12.455Z,100.00
2023-03-26T15:59:31.826Z,100.00
2023-03-26T16:09:52.371Z,100.00
2023-03-26T16:20:14.083Z,100.00
2023-03-26T16:30:33.466Z,100.00
2023-03-26T16:40:38.002Z,100.00
2023-03-26T16:50:48.740Z,100.00
2023-03-26T17:01:05.567Z,100.00
2023-03-26T17:11:23.219Z,100.00
2023-03-26T17:21:45.769Z,100.00
2023-03-26T17:31:59.859Z,99.68
2023-03-26T17:52:56.215Z,100.00
2023-03-26T18:03:05.055Z,100.00
2023-03-26T18:13:26.648Z,100.00
2023-03-26T18:23:36.770Z,100.00
2023-03-26T18:33:45.953Z,100.00
2023-03-26T18:43:49.222Z,100.00
2023-03-26T18:53:57.412Z,100.00
2023-03-26T19:04:04.003Z,100.00
2023-03-26T19:14:17.208Z,100.00
2023-03-26T19:24:22.694Z,100.00
2023-03-26T19:34:33.527Z,99.51
2023-03-26T19:44:41.205Z,100.00
2023-03-26T19:55:03.374Z,98.49
2023-03-26T20:05:07.746Z,94.87
2023-03-26T20:15:19.840Z,96.21
2023-03-26T20:25:30.962Z,93.47
2023-03-26T20:35:36.687Z,91.19
2023-03-26T20:45:40.360Z,87.08
2023-03-26T20:55:46.184Z,85.20
2023-03-26T21:05:51.430Z,86.04
2023-03-26T21:15:56.683Z,87.22
2023-03-26T21:26:08.046Z,86.90
2023-03-26T21:36:13.661Z,86.41
2023-03-26T21:46:19.068Z,86.12
2023-03-26T21:56:39.210Z,84.72
2023-03-26T22:06:49.089Z,83.20
2023-03-26T22:28:37.443Z,80.93
2023-03-26T22:38:41.010Z,80.04
2023-03-26T22:48:45.905Z,78.99
2023-03-26T22:58:49.215Z,77.40
2023-03-26T23:08:54.452Z,71.07
2023-03-26T23:18:57.576Z,73.38
2023-03-26T23:29:02.091Z,72.79
2023-03-26T23:39:05.258Z,73.31
2023-03-26T23:49:10.464Z,74.61
2023-03-26T23:59:13.858Z,75.79
